Terminal Aerodrome Forecast
Issued by NWS

Home | Current Version | Previous Version | Text Only | Print | Product List | Glossary On
Versions: 1 2 3 4 5 6 7 8 9 10 11 12 13
630
FTUS45 KTFX 211720
TAFBZN
TAF
KBZN 211720Z 2118/2218 VRB05KT P6SM BKN110
     FM220400 16004KT P6SM SCT015 OVC030 PROB30 2206/2208 4SM -SHSN
      OVC015
     FM221100 VRB03KT P6SM SCT090=

USA.gov is the U.S. government's official web portal to all federal, state and local government web resources and services.